Time;durP1;ratioP1;P1;durP2;ratioP2;P2;SDS_P1;SDS_P2;PMS_P1;PMS_P2;Temp;Humidity;BMP_temperature;BMP_pressure;BME280_temperature;BME280_humidity;BME280_pressure;Samples;Min_cycle;Max_cycle;Signal;HPM_P1;HPM_P2
2023/07/26 00:03:32;;;;;;;;;;;21.80;58.10;;;;;;10335264;28;93656;-65
2023/07/26 00:08:33;;;;;;;;;;;21.80;58.10;;;;;;10317030;28;94320;-65
2023/07/26 00:13:35;;;;;;;;;;;21.80;58.10;;;;;;10317493;28;94512;-65
2023/07/26 00:18:37;;;;;;;;;;;21.80;58.00;;;;;;10317880;28;93652;-65
2023/07/26 00:23:39;;;;;;;;;;;21.80;58.00;;;;;;10334243;28;93931;-65
2023/07/26 00:28:41;;;;;;;;;;;21.80;58.00;;;;;;10334212;28;94399;-65
2023/07/26 00:33:43;;;;;;;;;;;21.80;58.10;;;;;;10313480;28;96828;-65
2023/07/26 00:38:45;;;;;;;;;;;21.80;58.10;;;;;;10334736;28;95595;-65
2023/07/26 00:43:46;;;;;;;;;;;21.80;58.00;;;;;;10334169;28;94918;-65
2023/07/26 00:48:48;;;;;;;;;;;21.80;58.00;;;;;;10332641;28;94410;-65
2023/07/26 00:53:50;;;;;;;;;;;21.80;58.00;;;;;;10331323;28;94091;-65
2023/07/26 00:58:52;;;;;;;;;;;21.80;58.00;;;;;;10330774;28;93530;-65
2023/07/26 01:03:53;;;;;;;;;;;21.70;57.90;;;;;;10330678;28;93091;-65
2023/07/26 01:08:55;;;;;;;;;;;21.70;57.90;;;;;;10331863;28;92617;-65
2023/07/26 01:14:17;;;;;;;;;;;21.70;57.90;;;;;;10330648;28;93745;-65
2023/07/26 01:19:19;;;;;;;;;;;21.70;57.90;;;;;;10289128;28;94449;-65
2023/07/26 01:24:20;;;;;;;;;;;21.70;57.90;;;;;;10327268;28;95928;-65
2023/07/26 01:29:22;;;;;;;;;;;21.60;57.80;;;;;;10328964;28;92519;-65
2023/07/26 01:34:26;;;;;;;;;;;21.70;57.90;;;;;;10330070;28;92969;-65
2023/07/26 01:39:28;;;;;;;;;;;21.60;57.80;;;;;;10329777;28;94496;-65
2023/07/26 01:44:36;;;;;;;;;;;21.60;57.80;;;;;;10330479;28;93465;-65
2023/07/26 01:49:38;;;;;;;;;;;21.60;57.80;;;;;;10259976;28;1965994;-65
2023/07/26 01:54:40;;;;;;;;;;;21.60;57.90;;;;;;10331988;28;93356;-65
2023/07/26 01:59:42;;;;;;;;;;;21.60;57.80;;;;;;10331938;28;92592;-64
2023/07/26 02:04:44;;;;;;;;;;;21.60;57.90;;;;;;10313236;28;93278;-65
2023/07/26 02:09:46;;;;;;;;;;;21.60;57.80;;;;;;10331087;28;94430;-65
2023/07/26 02:14:48;;;;;;;;;;;21.60;57.80;;;;;;10327534;28;95991;-65
2023/07/26 02:19:50;;;;;;;;;;;21.50;57.60;;;;;;10331804;28;94421;-65
2023/07/26 02:24:51;;;;;;;;;;;21.50;57.70;;;;;;10330620;28;94409;-65
2023/07/26 02:29:53;;;;;;;;;;;21.50;57.60;;;;;;10330768;28;95117;-65
2023/07/26 02:34:55;;;;;;;;;;;21.50;57.60;;;;;;10330237;28;93709;-65
2023/07/26 02:39:57;;;;;;;;;;;21.50;57.70;;;;;;10329895;28;94472;-65
2023/07/26 02:44:59;;;;;;;;;;;21.50;57.70;;;;;;10312445;28;94528;-65
2023/07/26 02:50:03;;;;;;;;;;;21.50;57.60;;;;;;10329697;28;92750;-65
2023/07/26 02:55:05;;;;;;;;;;;21.50;57.60;;;;;;10312258;28;93045;-65
2023/07/26 03:00:08;;;;;;;;;;;21.50;57.60;;;;;;10329568;28;94401;-65
2023/07/26 03:05:09;;;;;;;;;;;21.50;57.60;;;;;;10326828;28;95296;-65
2023/07/26 03:10:11;;;;;;;;;;;21.50;57.60;;;;;;10329106;28;94432;-65
2023/07/26 03:15:13;;;;;;;;;;;21.50;57.60;;;;;;10310808;28;93625;-65
2023/07/26 03:20:14;;;;;;;;;;;21.50;57.60;;;;;;10329093;28;93956;-65
2023/07/26 03:25:16;;;;;;;;;;;21.50;57.50;;;;;;10311351;28;94428;-65
2023/07/26 03:30:18;;;;;;;;;;;21.50;57.50;;;;;;10328365;28;94617;-65
2023/07/26 03:35:20;;;;;;;;;;;21.50;57.50;;;;;;10328779;28;94453;-65
2023/07/26 03:40:22;;;;;;;;;;;21.50;57.40;;;;;;10328082;28;92876;-65
2023/07/26 03:45:26;;;;;;;;;;;21.50;57.40;;;;;;10327922;28;93672;-65
2023/07/26 03:50:29;;;;;;;;;;;21.50;57.40;;;;;;10327531;28;94467;-65
2023/07/26 03:55:30;;;;;;;;;;;21.50;57.40;;;;;;10325120;28;95220;-65
2023/07/26 04:00:32;;;;;;;;;;;21.50;57.30;;;;;;10327724;28;93382;-65
2023/07/26 04:05:34;;;;;;;;;;;21.50;57.30;;;;;;10328366;28;92617;-65
2023/07/26 04:10:36;;;;;;;;;;;21.50;57.30;;;;;;10332105;28;93479;-65
2023/07/26 04:15:38;;;;;;;;;;;21.50;57.20;;;;;;10334490;28;94464;-65
2023/07/26 04:20:41;;;;;;;;;;;21.50;57.20;;;;;;10334690;28;93478;-65
2023/07/26 04:25:47;;;;;;;;;;;21.50;57.20;;;;;;10315931;28;93388;-65
2023/07/26 04:30:49;;;;;;;;;;;21.50;57.20;;;;;;10317773;28;92721;-65
2023/07/26 04:35:54;;;;;;;;;;;21.50;57.20;;;;;;10334137;28;92831;-65
2023/07/26 04:40:56;;;;;;;;;;;21.50;57.20;;;;;;10334544;28;94453;-65
2023/07/26 04:51:31;;;;;;;;;;;21.50;57.20;;;;;;8649858;22;93083;-62
2023/07/26 04:56:33;;;;;;;;;;;21.50;57.20;;;;;;10314642;28;93628;-62
2023/07/26 05:01:35;;;;;;;;;;;21.50;57.20;;;;;;10315946;28;94502;-62
2023/07/26 05:06:37;;;;;;;;;;;21.50;57.20;;;;;;10334321;28;94717;-62
2023/07/26 05:11:39;;;;;;;;;;;21.40;57.20;;;;;;10315631;28;94622;-62
2023/07/26 05:16:40;;;;;;;;;;;21.40;57.20;;;;;;10333552;28;94393;-62
2023/07/26 05:21:43;;;;;;;;;;;21.40;57.30;;;;;;10332926;28;93699;-62
2023/07/26 05:26:45;;;;;;;;;;;21.40;57.30;;;;;;10333365;28;94461;-62
2023/07/26 05:31:46;;;;;;;;;;;21.40;57.40;;;;;;10332786;28;94447;-62
2023/07/26 05:36:48;;;;;;;;;;;21.40;57.50;;;;;;10330355;28;96923;-62
2023/07/26 05:41:50;;;;;;;;;;;21.40;57.50;;;;;;10333076;28;94436;-62
2023/07/26 05:46:51;;;;;;;;;;;21.40;57.50;;;;;;10333371;28;93306;-62
2023/07/26 05:51:53;;;;;;;;;;;21.30;57.50;;;;;;10313844;28;93650;-62
2023/07/26 05:56:55;;;;;;;;;;;21.30;57.60;;;;;;10332081;28;94524;-62
2023/07/26 06:02:03;;;;;;;;;;;21.30;57.70;;;;;;10332141;28;94516;-62
2023/07/26 06:07:05;;;;;;;;;;;21.30;57.70;;;;;;10314300;28;93654;-62
2023/07/26 06:12:07;;;;;;;;;;;21.30;57.80;;;;;;10314825;28;92750;-62
2023/07/26 06:17:11;;;;;;;;;;;21.30;58.30;;;;;;10330992;28;94086;-62
2023/07/26 06:22:13;;;;;;;;;;;21.30;60.60;;;;;;10338656;28;94444;-62
2023/07/26 06:27:20;;;;;;;;;;;21.30;60.60;;;;;;10341107;28;95837;-62
2023/07/26 06:32:21;;;;;;;;;;;21.30;60.50;;;;;;10371216;28;93319;-63
2023/07/26 06:37:23;;;;;;;;;;;21.20;59.90;;;;;;10367536;28;93284;-64
2023/07/26 06:42:25;;;;;;;;;;;21.30;60.40;;;;;;10330423;28;93605;-64
2023/07/26 06:47:27;;;;;;;;;;;21.20;60.30;;;;;;10329499;28;93535;-64
2023/07/26 06:52:30;;;;;;;;;;;21.30;60.10;;;;;;10329322;28;93427;-64
2023/07/26 06:57:32;;;;;;;;;;;21.30;60.20;;;;;;10310221;28;94413;-64
2023/07/26 07:02:33;;;;;;;;;;;21.20;60.20;;;;;;10338373;28;92720;-64
2023/07/26 07:07:35;;;;;;;;;;;21.30;60.10;;;;;;10329967;28;93507;-66
2023/07/26 07:12:37;;;;;;;;;;;21.30;60.20;;;;;;10329912;28;94563;-68
2023/07/26 07:17:38;;;;;;;;;;;21.30;60.00;;;;;;10327359;28;95811;-67
2023/07/26 07:22:40;;;;;;;;;;;21.30;59.90;;;;;;10328311;28;93505;-67
2023/07/26 07:27:42;;;;;;;;;;;21.30;59.90;;;;;;10325755;28;93785;-67
2023/07/26 07:32:44;;;;;;;;;;;21.30;59.70;;;;;;10325629;28;93405;-67
2023/07/26 07:37:46;;;;;;;;;;;21.30;59.50;;;;;;10329306;28;93301;-67
2023/07/26 07:42:48;;;;;;;;;;;21.30;59.40;;;;;;10327783;28;94399;-66
2023/07/26 07:47:50;;;;;;;;;;;21.20;59.20;;;;;;10334958;28;93451;-66
2023/07/26 07:52:51;;;;;;;;;;;21.30;59.70;;;;;;10335196;28;93542;-64
2023/07/26 07:57:53;;;;;;;;;;;21.20;60.50;;;;;;10335590;28;94627;-63
2023/07/26 08:02:55;;;;;;;;;;;21.30;61.40;;;;;;10314651;28;93768;-63
2023/07/26 08:07:57;;;;;;;;;;;21.30;61.20;;;;;;10328732;28;96012;-63
2023/07/26 08:12:59;;;;;;;;;;;21.30;61.20;;;;;;10332944;28;94516;-64
2023/07/26 08:18:01;;;;;;;;;;;21.30;60.80;;;;;;10313450;28;93471;-64
2023/07/26 08:23:03;;;;;;;;;;;21.30;60.80;;;;;;10331751;28;94501;-63
2023/07/26 08:28:06;;;;;;;;;;;21.30;60.60;;;;;;10332760;28;94700;-63
2023/07/26 08:33:07;;;;;;;;;;;21.40;60.80;;;;;;10335312;28;94579;-63
2023/07/26 08:38:10;;;;;;;;;;;21.40;60.30;;;;;;10315906;28;93556;-64
2023/07/26 08:43:13;;;;;;;;;;;21.40;60.10;;;;;;10335083;28;93681;-64
2023/07/26 08:48:17;;;;;;;;;;;21.40;60.00;;;;;;10333573;28;93441;-63
2023/07/26 08:53:18;;;;;;;;;;;21.40;59.80;;;;;;10333638;28;92908;-64
2023/07/26 08:58:20;;;;;;;;;;;21.40;59.60;;;;;;10331200;28;95819;-63
2023/07/26 09:03:22;;;;;;;;;;;21.40;59.60;;;;;;10332708;28;93466;-63
2023/07/26 09:08:24;;;;;;;;;;;21.40;59.60;;;;;;10333588;28;93409;-64
2023/07/26 09:13:26;;;;;;;;;;;21.40;59.60;;;;;;10315079;28;92946;-64
2023/07/26 09:18:28;;;;;;;;;;;21.40;59.40;;;;;;10332970;28;94387;-63
2023/07/26 09:23:30;;;;;;;;;;;21.40;59.50;;;;;;10333392;28;93089;-64
2023/07/26 09:28:32;;;;;;;;;;;21.40;59.40;;;;;;10333075;28;94714;-63
2023/07/26 09:33:35;;;;;;;;;;;21.40;59.50;;;;;;10332556;28;92718;-64
2023/07/26 09:38:36;;;;;;;;;;;21.40;59.40;;;;;;10331694;28;93831;-64
2023/07/26 09:43:38;;;;;;;;;;;21.40;59.40;;;;;;10331457;28;93495;-64
2023/07/26 09:48:58;;;;;;;;;;;21.40;59.40;;;;;;10328583;28;95890;-64
2023/07/26 09:54:00;;;;;;;;;;;21.50;59.50;;;;;;10331497;28;94558;-64
2023/07/26 09:59:07;;;;;;;;;;;21.40;59.40;;;;;;10331600;28;93964;-64
2023/07/26 10:04:10;;;;;;;;;;;21.50;59.30;;;;;;10331699;28;94473;-64
2023/07/26 10:09:15;;;;;;;;;;;21.50;59.20;;;;;;10331317;28;94883;-64
2023/07/26 10:14:19;;;;;;;;;;;21.60;59.10;;;;;;10331632;28;94510;-64
2023/07/26 10:19:21;;;;;;;;;;;21.70;59.00;;;;;;10331095;28;94469;-64
2023/07/26 10:24:24;;;;;;;;;;;21.70;58.80;;;;;;10331134;28;92669;-64
2023/07/26 10:29:26;;;;;;;;;;;21.80;58.60;;;;;;10330664;28;93239;-64
2023/07/26 10:34:28;;;;;;;;;;;21.80;58.50;;;;;;10330828;28;94423;-64
2023/07/26 10:39:35;;;;;;;;;;;21.80;58.30;;;;;;10328622;28;96797;-64
2023/07/26 10:44:39;;;;;;;;;;;21.80;58.20;;;;;;10331622;28;94445;-64
2023/07/26 10:49:44;;;;;;;;;;;21.90;58.20;;;;;;10312188;28;93466;-64
2023/07/26 10:54:46;;;;;;;;;;;21.90;58.20;;;;;;10330340;28;94400;-64
2023/07/26 10:59:56;;;;;;;;;;;21.90;58.10;;;;;;10330422;28;94449;-64
2023/07/26 11:04:57;;;;;;;;;;;21.90;58.20;;;;;;10330061;28;94660;-64
2023/07/26 11:10:15;;;;;;;;;;;21.90;58.20;;;;;;10329812;28;94467;-64
2023/07/26 11:15:27;;;;;;;;;;;21.90;58.10;;;;;;10311973;28;92722;-64
2023/07/26 11:20:50;;;;;;;;;;;21.80;59.00;;;;;;10320439;28;95844;-63
2023/07/26 11:25:53;;;;;;;;;;;21.70;58.10;;;;;;10336482;28;93266;-64
2023/07/26 11:30:56;;;;;;;;;;;21.80;58.20;;;;;;10334642;28;96884;-64
2023/07/26 11:35:59;;;;;;;;;;;21.70;58.10;;;;;;10336275;28;94815;-64
2023/07/26 11:41:01;;;;;;;;;;;21.70;58.10;;;;;;10337320;28;94448;-64
2023/07/26 11:46:03;;;;;;;;;;;21.70;58.10;;;;;;10336027;28;92493;-64
2023/07/26 11:51:05;;;;;;;;;;;21.70;58.20;;;;;;10335492;28;93545;-63
2023/07/26 11:56:08;;;;;;;;;;;21.70;58.00;;;;;;10336381;28;94022;-64
2023/07/26 12:01:10;;;;;;;;;;;21.70;58.20;;;;;;10336347;28;94408;-64
2023/07/26 12:06:12;;;;;;;;;;;21.70;58.10;;;;;;10336513;28;93321;-64
2023/07/26 12:11:17;;;;;;;;;;;21.70;58.10;;;;;;10334996;28;93053;-64
2023/07/26 12:16:25;;;;;;;;;;;21.70;58.10;;;;;;10334129;28;93453;-64
2023/07/26 12:21:28;;;;;;;;;;;21.70;58.10;;;;;;10332906;28;96280;-64
2023/07/26 12:26:33;;;;;;;;;;;21.80;58.10;;;;;;10335353;28;94484;-64
2023/07/26 12:31:36;;;;;;;;;;;21.70;58.10;;;;;;10316422;28;92850;-64
2023/07/26 12:36:43;;;;;;;;;;;21.80;58.10;;;;;;10334992;28;94384;-64
2023/07/26 12:41:45;;;;;;;;;;;21.80;58.10;;;;;;10333784;28;93466;-64
2023/07/26 12:46:47;;;;;;;;;;;21.80;58.10;;;;;;10334816;28;94019;-63
2023/07/26 12:51:52;;;;;;;;;;;21.80;58.10;;;;;;10333169;28;94137;-64
2023/07/26 12:56:54;;;;;;;;;;;21.80;58.10;;;;;;10334981;28;93873;-63
2023/07/26 13:01:56;;;;;;;;;;;21.80;58.10;;;;;;10332543;28;93428;-63
2023/07/26 13:06:58;;;;;;;;;;;21.90;58.10;;;;;;10316268;28;94476;-63
2023/07/26 13:12:00;;;;;;;;;;;21.90;58.10;;;;;;10330664;28;97519;-63
2023/07/26 13:17:01;;;;;;;;;;;21.90;58.00;;;;;;10333023;28;93425;-64
2023/07/26 13:22:03;;;;;;;;;;;21.90;57.90;;;;;;10333585;28;94499;-63
2023/07/26 13:27:05;;;;;;;;;;;21.90;57.90;;;;;;10332939;28;94487;-64
2023/07/26 13:32:07;;;;;;;;;;;21.90;57.90;;;;;;10332271;28;94566;-63
2023/07/26 13:37:09;;;;;;;;;;;21.90;57.90;;;;;;10333553;28;94597;-64
2023/07/26 13:42:11;;;;;;;;;;;21.80;57.60;;;;;;10331865;28;94376;-63
2023/07/26 13:47:12;;;;;;;;;;;21.80;57.60;;;;;;10332482;28;92564;-63
2023/07/26 13:52:15;;;;;;;;;;;21.80;57.60;;;;;;10331170;28;93494;-64
2023/07/26 13:57:17;;;;;;;;;;;21.80;57.70;;;;;;10332185;28;94543;-64
2023/07/26 14:02:19;;;;;;;;;;;21.80;57.70;;;;;;10312152;28;95990;-64
2023/07/26 14:07:21;;;;;;;;;;;21.70;57.60;;;;;;10329966;28;93817;-64
2023/07/26 14:12:22;;;;;;;;;;;21.80;57.70;;;;;;10325815;28;94380;-64
2023/07/26 14:17:24;;;;;;;;;;;21.70;57.70;;;;;;10331618;28;92997;-63
2023/07/26 14:22:26;;;;;;;;;;;21.70;57.70;;;;;;10330911;28;94303;-64
2023/07/26 14:27:28;;;;;;;;;;;21.80;57.80;;;;;;10313514;28;93403;-63
2023/07/26 14:32:30;;;;;;;;;;;21.80;57.80;;;;;;10331198;28;94417;-63
2023/07/26 14:37:32;;;;;;;;;;;21.70;57.70;;;;;;10331124;28;93701;-64
2023/07/26 14:42:34;;;;;;;;;;;21.70;57.80;;;;;;10330801;28;93806;-64
2023/07/26 14:47:36;;;;;;;;;;;21.70;57.80;;;;;;10312484;28;92581;-63
2023/07/26 14:52:38;;;;;;;;;;;21.70;57.80;;;;;;10326366;28;96852;-64
2023/07/26 14:57:40;;;;;;;;;;;21.70;57.80;;;;;;10330471;28;94693;-64
2023/07/26 15:02:42;;;;;;;;;;;21.70;57.80;;;;;;10330193;28;94108;-63
2023/07/26 15:07:44;;;;;;;;;;;21.70;57.80;;;;;;10329606;28;94215;-63
2023/07/26 15:12:45;;;;;;;;;;;21.70;57.80;;;;;;10329907;28;93764;-64
2023/07/26 15:17:47;;;;;;;;;;;21.60;57.70;;;;;;10329079;28;93548;-63
2023/07/26 15:22:52;;;;;;;;;;;21.70;57.80;;;;;;10295548;28;94914;-64
2023/07/26 15:27:54;;;;;;;;;;;21.70;57.80;;;;;;10329364;28;92720;-64
2023/07/26 15:32:55;;;;;;;;;;;21.70;57.80;;;;;;10329956;28;94803;-64
2023/07/26 15:37:57;;;;;;;;;;;21.70;57.80;;;;;;10328730;28;93326;-63
2023/07/26 15:42:59;;;;;;;;;;;21.70;57.60;;;;;;10327330;28;97316;-64
2023/07/26 15:48:01;;;;;;;;;;;21.70;57.40;;;;;;10329357;28;93594;-63
2023/07/26 15:53:04;;;;;;;;;;;21.70;57.50;;;;;;10328411;28;93494;-64
2023/07/26 15:58:06;;;;;;;;;;;21.70;57.40;;;;;;10329035;28;94383;-63
2023/07/26 16:03:08;;;;;;;;;;;21.70;57.50;;;;;;10328485;28;93577;-63
2023/07/26 16:08:11;;;;;;;;;;;21.70;57.50;;;;;;10334077;28;93404;-63
2023/07/26 16:13:13;;;;;;;;;;;21.70;57.40;;;;;;10334260;28;92512;-64
2023/07/26 16:18:15;;;;;;;;;;;21.70;57.30;;;;;;10317813;28;92710;-64
2023/07/26 16:23:17;;;;;;;;;;;21.70;57.40;;;;;;10335433;28;94166;-64
2023/07/26 16:28:19;;;;;;;;;;;21.70;57.20;;;;;;10317134;28;94199;-63
2023/07/26 16:33:20;;;;;;;;;;;21.70;57.20;;;;;;10331669;28;95811;-64
2023/07/26 16:38:22;;;;;;;;;;;21.70;57.20;;;;;;10334568;28;94590;-64
2023/07/26 16:43:24;;;;;;;;;;;21.70;57.20;;;;;;10317486;28;93941;-64
2023/07/26 16:48:26;;;;;;;;;;;21.70;57.00;;;;;;10334656;28;94090;-63
2023/07/26 16:53:27;;;;;;;;;;;21.80;57.10;;;;;;10333807;28;93556;-64
2023/07/26 16:58:29;;;;;;;;;;;21.70;57.00;;;;;;10334205;28;94468;-64
2023/07/26 17:03:31;;;;;;;;;;;21.80;57.00;;;;;;10333946;28;93443;-63
2023/07/26 17:08:33;;;;;;;;;;;21.80;57.00;;;;;;10333995;28;92665;-64
2023/07/26 17:13:35;;;;;;;;;;;21.90;57.00;;;;;;10332874;28;93474;-63
2023/07/26 17:18:36;;;;;;;;;;;21.90;57.00;;;;;;10333376;28;93336;-63
2023/07/26 17:23:41;;;;;;;;;;;22.00;56.90;;;;;;10331315;28;95770;-64
2023/07/26 17:28:43;;;;;;;;;;;22.10;57.80;;;;;;10314648;28;93450;-64
2023/07/26 17:33:45;;;;;;;;;;;22.20;56.70;;;;;;10315219;28;93399;-63
2023/07/26 17:38:46;;;;;;;;;;;22.20;56.50;;;;;;10333380;28;94051;-63
2023/07/26 17:43:48;;;;;;;;;;;22.20;56.60;;;;;;10332659;28;92759;-63
2023/07/26 17:48:50;;;;;;;;;;;22.20;56.40;;;;;;10332260;28;93396;-63
2023/07/26 17:53:52;;;;;;;;;;;22.20;56.40;;;;;;10333043;28;94740;-63
2023/07/26 17:58:53;;;;;;;;;;;22.20;56.40;;;;;;10332238;28;92646;-64
2023/07/26 18:03:55;;;;;;;;;;;22.20;56.50;;;;;;10331848;28;94409;-64
2023/07/26 18:08:57;;;;;;;;;;;22.30;56.50;;;;;;10331596;28;94081;-64
2023/07/26 18:13:59;;;;;;;;;;;22.30;56.50;;;;;;10329422;28;96958;-63
2023/07/26 18:19:02;;;;;;;;;;;22.30;56.30;;;;;;10313042;28;94482;-63
2023/07/26 18:24:05;;;;;;;;;;;22.30;56.20;;;;;;10313954;28;93310;-64
2023/07/26 18:29:07;;;;;;;;;;;22.40;56.20;;;;;;10329829;28;93391;-63
2023/07/26 18:34:08;;;;;;;;;;;22.40;56.00;;;;;;10330651;28;93737;-64
2023/07/26 18:39:10;;;;;;;;;;;22.30;56.00;;;;;;10329920;28;93505;-64
2023/07/26 18:44:15;;;;;;;;;;;22.30;56.10;;;;;;10330788;28;93517;-64
2023/07/26 18:49:17;;;;;;;;;;;22.20;56.00;;;;;;10330139;28;92720;-64
2023/07/26 18:54:18;;;;;;;;;;;22.10;56.20;;;;;;10331183;28;94450;-63
2023/07/26 18:59:20;;;;;;;;;;;22.10;56.30;;;;;;10312534;28;93484;-63
2023/07/26 19:04:22;;;;;;;;;;;22.00;56.20;;;;;;10326921;28;95840;-63
2023/07/26 19:09:24;;;;;;;;;;;22.00;56.30;;;;;;10330418;28;93417;-63
2023/07/26 19:14:26;;;;;;;;;;;22.00;56.40;;;;;;10329051;28;93475;-63
2023/07/26 19:19:27;;;;;;;;;;;21.90;56.30;;;;;;10328830;28;93475;-63
2023/07/26 19:24:29;;;;;;;;;;;21.90;56.40;;;;;;10329587;28;92794;-63
2023/07/26 19:29:31;;;;;;;;;;;21.80;56.50;;;;;;10310793;28;94465;-63
2023/07/26 19:34:33;;;;;;;;;;;21.80;56.60;;;;;;10328385;28;93033;-64
2023/07/26 19:39:35;;;;;;;;;;;21.80;56.50;;;;;;10330612;28;94028;-64
2023/07/26 19:44:36;;;;;;;;;;;21.80;56.60;;;;;;10335974;28;92750;-63
2023/07/26 19:49:38;;;;;;;;;;;21.80;56.60;;;;;;10334472;28;93368;-63
2023/07/26 19:54:40;;;;;;;;;;;21.80;56.60;;;;;;10333501;28;95822;-63
2023/07/26 19:59:42;;;;;;;;;;;21.70;56.70;;;;;;10335579;28;92539;-64
2023/07/26 20:04:44;;;;;;;;;;;21.70;56.70;;;;;;10335599;28;93770;-63
2023/07/26 20:09:45;;;;;;;;;;;21.70;56.70;;;;;;10335380;28;93586;-64
2023/07/26 20:14:47;;;;;;;;;;;21.70;56.60;;;;;;10318312;28;95990;-63
2023/07/26 20:19:49;;;;;;;;;;;21.70;56.70;;;;;;10335107;28;94827;-63
2023/07/26 20:24:52;;;;;;;;;;;21.70;56.60;;;;;;10335057;28;94356;-63
2023/07/26 20:29:54;;;;;;;;;;;21.70;56.60;;;;;;10335517;28;93395;-63
2023/07/26 20:34:56;;;;;;;;;;;21.70;56.50;;;;;;10334258;28;94464;-63
2023/07/26 20:39:58;;;;;;;;;;;21.70;56.50;;;;;;10334119;28;93441;-63
2023/07/26 20:44:59;;;;;;;;;;;21.70;56.40;;;;;;10332603;28;96830;-63
2023/07/26 20:50:01;;;;;;;;;;;21.70;56.40;;;;;;10333539;28;93215;-64
2023/07/26 20:55:03;;;;;;;;;;;21.70;56.30;;;;;;10333530;28;93784;-63
2023/07/26 21:00:05;;;;;;;;;;;21.70;56.20;;;;;;10334158;28;94753;-63
2023/07/26 21:05:07;;;;;;;;;;;21.70;56.10;;;;;;10334494;28;93574;-64
2023/07/26 21:10:09;;;;;;;;;;;21.70;56.00;;;;;;10333739;28;93476;-63
2023/07/26 21:15:11;;;;;;;;;;;21.70;56.00;;;;;;10333132;28;94582;-64
2023/07/26 21:20:12;;;;;;;;;;;21.70;55.90;;;;;;10332802;28;92815;-64
2023/07/26 21:25:14;;;;;;;;;;;21.80;55.90;;;;;;10332493;28;93788;-63
2023/07/26 21:30:16;;;;;;;;;;;21.70;55.90;;;;;;10332965;28;94403;-63
2023/07/26 21:35:18;;;;;;;;;;;21.70;55.80;;;;;;10330389;28;96983;-64
2023/07/26 21:40:20;;;;;;;;;;;21.70;55.70;;;;;;10332573;28;93309;-63
2023/07/26 21:45:21;;;;;;;;;;;21.70;55.80;;;;;;10315635;28;94391;-64
2023/07/26 21:50:23;;;;;;;;;;;21.70;55.70;;;;;;10331493;28;93399;-64
2023/07/26 21:55:25;;;;;;;;;;;21.70;55.70;;;;;;10331262;28;93488;-64
2023/07/26 22:00:27;;;;;;;;;;;21.70;55.70;;;;;;10332149;28;94386;-64
2023/07/26 22:05:28;;;;;;;;;;;21.70;55.60;;;;;;10331292;28;94751;-64
2023/07/26 22:10:30;;;;;;;;;;;21.70;55.60;;;;;;10331703;28;94050;-63
2023/07/26 22:15:32;;;;;;;;;;;21.70;55.60;;;;;;10331897;28;93461;-63
2023/07/26 22:20:34;;;;;;;;;;;21.70;55.60;;;;;;10332447;28;93782;-64
2023/07/26 22:25:35;;;;;;;;;;;21.70;55.60;;;;;;10328330;28;95879;-63
2023/07/26 22:30:37;;;;;;;;;;;21.70;55.50;;;;;;10313010;28;94739;-64
2023/07/26 22:35:39;;;;;;;;;;;21.70;55.50;;;;;;10330508;28;93472;-64
2023/07/26 22:40:41;;;;;;;;;;;21.70;55.50;;;;;;10331401;28;94512;-63
2023/07/26 22:45:43;;;;;;;;;;;21.60;55.40;;;;;;10311620;28;93469;-63
2023/07/26 22:50:45;;;;;;;;;;;21.60;55.40;;;;;;10312068;28;93625;-63
2023/07/26 22:55:47;;;;;;;;;;;21.60;55.30;;;;;;10329761;28;92496;-64
2023/07/26 23:00:49;;;;;;;;;;;21.60;55.30;;;;;;10312655;28;93842;-63
2023/07/26 23:05:54;;;;;;;;;;;21.60;55.40;;;;;;10330464;28;93439;-64
2023/07/26 23:10:57;;;;;;;;;;;21.60;55.40;;;;;;10330378;28;94403;-64
2023/07/26 23:16:01;;;;;;;;;;;21.60;55.40;;;;;;10326322;28;96283;-63
2023/07/26 23:21:02;;;;;;;;;;;21.60;55.40;;;;;;10330038;28;93536;-63
2023/07/26 23:26:04;;;;;;;;;;;21.60;55.30;;;;;;10329582;28;94428;-63
2023/07/26 23:31:06;;;;;;;;;;;21.50;55.20;;;;;;10329554;28;93462;-64
2023/07/26 23:36:08;;;;;;;;;;;21.50;55.30;;;;;;10311443;28;93466;-64
2023/07/26 23:41:10;;;;;;;;;;;21.50;55.30;;;;;;10328557;28;94495;-64
2023/07/26 23:46:12;;;;;;;;;;;21.50;55.30;;;;;;10329264;28;93433;-64
2023/07/26 23:51:14;;;;;;;;;;;21.50;55.40;;;;;;10329295;28;92273;-64
2023/07/26 23:56:15;;;;;;;;;;;21.50;55.40;;;;;;10328594;28;93488;-63
